Airfield :







YOU CAN JOIN US ON...

 
LOGIN :

Register | Disclaimer

   EN    FR    IT 

 









Legend :    VFR   Marginal VFR   IFR   Intensive IFR   Very Intensive IFR
Visi :
Ceiling :
>= 8 km
>= 3000ft
5 to 8 km
1000 to 3000 ft
1500m to 5 km
500 to 1000 ft
800 to 1500m
200 to 500 ft
< 800m
< 200 ft
Symbols :   Thunderstorms  Fog  Heavy snow  Heavy precipitations  Wind > 20 kt






- Airport Elevation : 271 ft


KBAF - Barnes Municipal

CURRENT METAR :
  • 250953Z AUTO 01004KT 10SM BKN044 OVC095 00/M07 A3042 RMK AO2 SLP308 T00001072

EXPIRED METARs :
  • 250853Z AUTO 05003KT 10SM OVC080 00/M07 A3042 RMK AO2 SLP307 T00001067 58001
  • 250753Z AUTO 00000KT 10SM OVC090 00/M06 A3045 RMK AO2 SLP315 T00001056

TAF KBAF
Valid from the 25 at 06:00 until the 26 at 06:00 UTC


250533Z 2506/2606 03003KT P6SM BKN150
FM251100 02003KT P6SM VCSH OVC080
FM251400 01004KT P6SM VCSH OVC030
FM251600 36004KT P6SM OVC030
FM251700 32004KT P6SM OVC050
FM252300 00000KT P6SM VCSH OVC070
KZBW FIR / North America



MET'MAP, your aeronautical weather chart ! - Copyright ORBIFLY December 2007 - Disclaimer

ORBIFLY MET'MAP TEAM :

Programming & Development : Alexandra Zaïnal
Concept & original design : Baudouin d'Aumeries
Assistance for programming : Marc-Olivier Méhu
Technical & hardware support : Manuel Goepfert

Contact : metmap@orbifly.com




SOURCES & CREDITS :

   NOAA